Time;durP1;ratioP1;P1;durP2;ratioP2;P2;SDS_P1;SDS_P2;PMS_P1;PMS_P2;Temp;Humidity;BMP_temperature;BMP_pressure;BME280_temperature;BME280_humidity;BME280_pressure;Samples;Min_cycle;Max_cycle;Signal;HPM_P1;HPM_P2
2023/08/03 00:00:34;;;;;;;2.08;1.88;;;16.00;99.90;;;;;;4998319;28;89297;-33
2023/08/03 00:02:59;;;;;;;3.78;2.15;;;16.10;99.90;;;;;;4990223;28;89316;-34
2023/08/03 00:05:25;;;;;;;4.22;2.30;;;16.10;99.90;;;;;;4978758;28;90151;-33
2023/08/03 00:07:51;;;;;;;4.72;2.47;;;16.10;99.90;;;;;;4977608;28;90707;-33
2023/08/03 00:10:18;;;;;;;6.50;2.70;;;16.10;99.90;;;;;;4979730;28;90731;-35
2023/08/03 00:12:44;;;;;;;5.13;2.33;;;16.10;99.90;;;;;;4961742;28;89671;-34
2023/08/03 00:15:12;;;;;;;3.72;2.30;;;16.10;99.90;;;;;;4980215;28;89566;-31
2023/08/03 00:17:38;;;;;;;4.88;2.55;;;16.10;99.90;;;;;;4979862;28;90347;-32
2023/08/03 00:20:05;;;;;;;4.25;2.15;;;16.10;99.90;;;;;;4981659;28;89847;-33
2023/08/03 00:22:34;;;;;;;6.60;2.47;;;16.10;99.90;;;;;;4980331;28;89608;-32
2023/08/03 00:25:01;;;;;;;6.10;2.25;;;16.10;99.90;;;;;;4993237;28;90195;-36
2023/08/03 00:27:27;;;;;;;5.18;2.13;;;16.10;99.90;;;;;;4982031;28;89443;-38
2023/08/03 00:29:53;;;;;;;4.93;2.38;;;16.10;99.90;;;;;;4997178;28;89731;-32
2023/08/03 00:32:19;;;;;;;7.82;2.33;;;16.10;99.90;;;;;;5000165;28;90025;-39
2023/08/03 00:34:45;;;;;;;2.28;1.95;;;16.10;99.90;;;;;;4988692;28;90380;-35
2023/08/03 00:37:11;;;;;;;4.50;2.50;;;16.10;99.90;;;;;;5000476;28;89845;-35
2023/08/03 00:39:37;;;;;;;7.53;2.33;;;16.10;99.90;;;;;;4987893;28;89647;-37
2023/08/03 00:42:04;;;;;;;4.00;1.92;;;16.10;99.90;;;;;;4983198;28;89357;-31
2023/08/03 00:44:30;;;;;;;6.88;2.47;;;16.10;99.90;;;;;;4980979;28;90296;-32
2023/08/03 00:46:55;;;;;;;2.55;1.92;;;16.10;99.90;;;;;;4994291;28;90150;-35
2023/08/03 00:49:27;;;;;;;2.90;1.98;;;16.10;99.90;;;;;;4994711;28;89740;-35
2023/08/03 00:51:56;;;;;;;11.57;2.20;;;16.00;99.90;;;;;;4982278;28;89426;-35
2023/08/03 00:54:22;;;;;;;4.07;1.98;;;16.00;99.90;;;;;;4994899;28;90654;-39
2023/08/03 00:56:48;;;;;;;5.38;2.25;;;16.10;99.90;;;;;;4981142;28;90506;-36
2023/08/03 00:59:14;;;;;;;3.53;1.85;;;16.10;99.90;;;;;;4981202;28;91192;-33
2023/08/03 01:01:41;;;;;;;4.07;1.70;;;16.00;99.90;;;;;;4992581;28;88214;-35
2023/08/03 01:04:06;;;;;;;1.50;1.20;;;16.00;99.90;;;;;;5000652;28;90324;-31
2023/08/03 01:06:32;;;;;;;2.40;1.50;;;16.00;99.90;;;;;;4990459;28;90422;-31
2023/08/03 01:08:59;;;;;;;2.58;1.27;;;16.00;99.90;;;;;;4981904;28;89374;-31
2023/08/03 01:11:26;;;;;;;3.22;1.77;;;16.00;99.90;;;;;;4981681;28;89463;-34
2023/08/03 01:13:52;;;;;;;5.95;1.77;;;16.00;99.90;;;;;;4985292;28;90324;-36
2023/08/03 01:16:18;;;;;;;1.95;1.35;;;15.90;99.90;;;;;;5000578;28;90843;-33
2023/08/03 01:18:43;;;;;;;3.80;1.73;;;16.00;99.90;;;;;;5000960;28;89276;-35
2023/08/03 01:21:11;;;;;;;2.25;1.33;;;15.90;99.90;;;;;;5000148;28;88725;-35
2023/08/03 01:23:37;;;;;;;3.83;1.92;;;15.90;99.90;;;;;;5000327;28;90384;-30
2023/08/03 01:26:02;;;;;;;3.47;1.85;;;15.90;99.90;;;;;;5000555;28;89641;-38
2023/08/03 01:28:28;;;;;;;3.80;1.48;;;15.90;99.90;;;;;;4999877;28;89527;-33
2023/08/03 01:30:53;;;;;;;1.75;1.63;;;15.90;99.90;;;;;;4997158;28;89059;-34
2023/08/03 01:33:20;;;;;;;4.57;1.77;;;15.90;99.90;;;;;;4992354;28;90347;-33
2023/08/03 01:35:45;;;;;;;3.25;2.20;;;15.90;99.90;;;;;;4996356;28;89525;-36
2023/08/03 01:38:14;;;;;;;6.25;1.85;;;15.90;99.90;;;;;;4996642;28;89597;-31
2023/08/03 01:40:41;;;;;;;;;;;15.90;99.90;;;;;;4998205;28;89200;-34
2023/08/03 01:43:06;;;;;;;2.95;2.13;;;15.90;99.90;;;;;;4994225;28;90009;-32
2023/08/03 01:45:32;;;;;;;2.92;2.22;;;15.90;99.90;;;;;;4996133;28;90898;-36
2023/08/03 01:47:58;;;;;;;2.40;1.90;;;15.90;99.90;;;;;;4993045;28;90759;-33
2023/08/03 01:50:23;;;;;;;3.08;1.98;;;15.90;99.90;;;;;;4996901;28;89257;-31
2023/08/03 01:52:49;;;;;;;2.65;2.40;;;15.90;99.90;;;;;;4994313;28;90145;-34
2023/08/03 01:55:15;;;;;;;2.42;2.13;;;15.90;99.90;;;;;;4997110;28;89653;-32
2023/08/03 01:57:40;;;;;;;3.13;2.10;;;15.90;99.90;;;;;;4997346;28;89652;-37
2023/08/03 02:00:07;;;;;;;2.90;1.83;;;15.90;99.90;;;;;;4997598;28;89121;-34
2023/08/03 02:02:32;;;;;;;4.10;1.90;;;15.90;99.90;;;;;;4996142;28;89952;-31
2023/08/03 02:04:58;;;;;;;2.80;1.73;;;15.90;99.90;;;;;;4997340;28;89747;-34
2023/08/03 02:07:46;;;;;;;3.22;1.90;;;15.90;99.90;;;;;;4996659;28;90728;-35
2023/08/03 02:10:13;;;;;;;2.42;1.75;;;15.90;99.90;;;;;;4996262;28;90437;-36
2023/08/03 02:12:38;;;;;;;1.90;1.67;;;15.90;99.90;;;;;;4997083;28;90757;-33
2023/08/03 02:15:06;;;;;;;1.90;1.80;;;15.90;99.90;;;;;;4994068;28;90076;-34
2023/08/03 02:17:32;;;;;;;2.33;2.13;;;15.90;99.90;;;;;;4997229;28;89199;-33
2023/08/03 02:19:58;;;;;;;6.97;2.03;;;15.90;99.90;;;;;;4996902;28;89326;-38
2023/08/03 02:22:24;;;;;;;5.85;2.10;;;15.90;99.90;;;;;;4997186;28;90686;-35
2023/08/03 02:24:49;;;;;;;2.65;1.90;;;15.90;99.90;;;;;;4993420;28;88853;-33
2023/08/03 02:27:15;;;;;;;1.80;1.63;;;15.90;99.90;;;;;;4997454;28;89238;-33
2023/08/03 02:29:41;;;;;;;3.65;1.67;;;15.90;99.90;;;;;;4986073;28;89709;-35
2023/08/03 02:32:07;;;;;;;2.70;1.80;;;15.90;99.90;;;;;;4997740;28;90965;-33
2023/08/03 02:34:32;;;;;;;2.60;1.88;;;15.90;99.90;;;;;;4988032;28;91106;-34
2023/08/03 02:36:58;;;;;;;2.97;2.45;;;15.90;99.90;;;;;;4997338;28;89875;-37
2023/08/03 02:39:23;;;;;;;2.38;2.00;;;15.90;99.90;;;;;;5000271;28;87507;-31
2023/08/03 02:41:49;;;;;;;2.00;1.88;;;15.90;99.90;;;;;;4999352;28;90299;-35
2023/08/03 02:44:14;;;;;;;2.70;1.58;;;15.80;99.90;;;;;;4999168;28;89670;-33
2023/08/03 02:46:41;;;;;;;3.25;2.28;;;15.90;99.90;;;;;;4998888;28;90111;-32
2023/08/03 02:49:06;;;;;;;3.78;1.92;;;15.90;99.90;;;;;;4999849;28;87691;-36
2023/08/03 02:51:32;;;;;;;1.67;1.50;;;15.90;99.90;;;;;;4997910;28;90849;-31
2023/08/03 02:53:57;;;;;;;7.38;2.20;;;15.90;99.90;;;;;;4987822;28;90383;-34
2023/08/03 02:56:23;;;;;;;2.95;2.15;;;15.90;99.90;;;;;;4979484;28;89442;-32
2023/08/03 02:58:49;;;;;;;5.25;2.25;;;15.90;99.90;;;;;;4978822;28;89948;-32
2023/08/03 03:01:14;;;;;;;2.88;2.58;;;15.90;99.90;;;;;;4986775;28;89348;-34
2023/08/03 03:03:40;;;;;;;3.50;2.63;;;15.90;99.90;;;;;;4998200;28;89867;-36
2023/08/03 03:06:05;;;;;;;6.82;3.22;;;15.90;99.90;;;;;;4979923;28;89437;-35
2023/08/03 03:08:31;;;;;;;8.25;4.10;;;15.90;99.90;;;;;;4992627;28;88939;-35
2023/08/03 03:10:57;;;;;;;4.18;2.80;;;15.90;99.90;;;;;;4979260;28;90639;-36
2023/08/03 03:13:23;;;;;;;3.38;3.15;;;15.90;99.90;;;;;;4978905;28;89458;-35
2023/08/03 03:15:49;;;;;;;8.23;4.28;;;15.90;99.90;;;;;;4987366;28;89713;-35
2023/08/03 03:18:14;;;;;;;3.70;3.40;;;16.00;99.90;;;;;;4990200;28;89078;-39
2023/08/03 03:20:40;;;;;;;4.78;4.03;;;16.00;99.90;;;;;;4991403;28;89954;-33
2023/08/03 03:23:06;;;;;;;9.13;4.72;;;16.00;99.90;;;;;;4978700;28;90361;-37
2023/08/03 03:25:31;;;;;;;4.10;3.70;;;16.00;99.90;;;;;;4987854;28;90401;-32
2023/08/03 03:28:04;;;;;;;9.45;4.72;;;16.00;99.90;;;;;;4984515;28;89695;-37
2023/08/03 03:30:32;;;;;;;7.03;4.35;;;16.00;99.90;;;;;;4991371;28;90203;-35
2023/08/03 03:32:58;;;;;;;6.50;4.82;;;16.00;99.90;;;;;;4999020;28;90238;-35
2023/08/03 03:35:23;;;;;;;5.13;4.60;;;16.00;99.90;;;;;;4998067;28;89896;-33
2023/08/03 03:37:49;;;;;;;7.05;4.70;;;16.00;99.90;;;;;;4990754;28;88553;-33
2023/08/03 03:40:15;;;;;;;11.60;5.68;;;16.10;99.90;;;;;;4991919;28;89883;-32
2023/08/03 03:42:40;;;;;;;12.60;5.80;;;16.00;99.90;;;;;;4998935;28;89805;-36
2023/08/03 03:45:07;;;;;;;6.45;5.50;;;16.10;99.90;;;;;;4992595;28;89565;-36
2023/08/03 03:47:32;;;;;;;8.10;5.10;;;16.10;99.90;;;;;;4989627;28;90436;-38
2023/08/03 03:49:58;;;;;;;7.40;5.45;;;16.10;99.90;;;;;;4997629;28;90128;-32
2023/08/03 03:52:24;;;;;;;7.78;5.50;;;16.10;99.90;;;;;;4988821;28;90159;-34
2023/08/03 03:54:50;;;;;;;8.48;5.72;;;16.10;99.90;;;;;;4997549;28;89342;-36
2023/08/03 03:57:15;;;;;;;7.72;5.30;;;16.10;99.90;;;;;;4988042;28;88863;-35
2023/08/03 03:59:41;;;;;;;9.63;4.93;;;16.10;99.90;;;;;;4991909;28;90143;-35
2023/08/03 04:02:06;;;;;;;11.35;4.90;;;16.10;99.90;;;;;;4993263;28;89993;-33
2023/08/03 04:04:32;;;;;;;8.73;5.68;;;16.10;99.90;;;;;;4995667;28;88909;-33
2023/08/03 04:06:58;;;;;;;5.80;4.20;;;16.10;99.90;;;;;;4995014;28;88282;-33
2023/08/03 04:09:23;;;;;;;5.05;4.30;;;16.10;99.90;;;;;;4996399;28;90805;-33
2023/08/03 04:11:49;;;;;;;10.30;5.82;;;16.10;99.90;;;;;;4995071;28;91551;-34
2023/08/03 04:14:15;;;;;;;11.00;4.50;;;16.10;99.90;;;;;;4994654;28;90342;-32
2023/08/03 04:16:40;;;;;;;7.43;5.10;;;16.10;99.90;;;;;;4998677;28;88021;-33
2023/08/03 04:19:06;;;;;;;10.35;4.50;;;16.20;99.90;;;;;;4998204;28;90989;-33
2023/08/03 04:21:31;;;;;;;8.25;5.05;;;16.10;99.90;;;;;;4993293;28;89598;-32
2023/08/03 04:23:57;;;;;;;11.98;4.95;;;16.20;99.90;;;;;;4996056;28;89291;-35
2023/08/03 04:26:23;;;;;;;9.32;4.25;;;16.20;99.90;;;;;;4993133;28;88198;-32
2023/08/03 04:28:48;;;;;;;10.48;4.97;;;16.20;99.90;;;;;;4985676;28;89143;-31
2023/08/03 04:31:14;;;;;;;5.80;4.35;;;16.20;99.90;;;;;;4987253;28;90080;-33
2023/08/03 04:33:40;;;;;;;13.98;5.93;;;16.20;99.90;;;;;;4978248;28;89350;-32
2023/08/03 04:36:06;;;;;;;10.20;5.72;;;16.20;99.90;;;;;;4983928;28;89825;-34
2023/08/03 04:38:31;;;;;;;7.78;4.57;;;16.20;99.90;;;;;;4989258;28;89070;-36
2023/08/03 04:41:00;;;;;;;13.45;5.05;;;16.20;99.90;;;;;;4978077;28;89941;-35
2023/08/03 04:43:26;;;;;;;;;;;16.20;99.90;;;;;;4981819;28;89325;-32
2023/08/03 04:45:51;;;;;;;10.52;4.45;;;16.20;99.90;;;;;;4998634;28;87609;-32
2023/08/03 04:48:17;;;;;;;15.55;4.32;;;16.20;99.90;;;;;;4996548;28;90539;-37
2023/08/03 04:50:42;;;;;;;11.35;4.32;;;16.20;99.90;;;;;;4997303;28;89729;-34
2023/08/03 04:53:08;;;;;;;14.98;4.47;;;16.20;99.90;;;;;;4997326;28;89283;-33
2023/08/03 04:55:34;;;;;;;8.68;3.55;;;16.20;99.90;;;;;;4998281;28;89767;-31
2023/08/03 04:58:00;;;;;;;9.23;4.10;;;16.30;99.90;;;;;;4996160;28;90245;-37
2023/08/03 05:00:25;;;;;;;11.48;4.82;;;16.20;99.90;;;;;;4996385;28;90094;-33
2023/08/03 05:02:51;;;;;;;12.00;4.15;;;16.30;99.90;;;;;;4997553;28;89999;-33
2023/08/03 05:05:17;;;;;;;16.90;5.30;;;16.30;99.90;;;;;;4965906;28;89646;-35
2023/08/03 05:07:42;;;;;;;11.38;4.60;;;16.30;99.90;;;;;;4984982;28;89820;-32
2023/08/03 05:10:08;;;;;;;11.80;4.30;;;16.30;99.90;;;;;;4996973;28;89802;-32
2023/08/03 05:12:34;;;;;;;9.35;4.35;;;16.30;99.90;;;;;;4978567;28;89281;-34
2023/08/03 05:14:59;;;;;;;6.65;3.92;;;16.30;99.90;;;;;;4982081;28;89052;-36
2023/08/03 05:17:25;;;;;;;14.65;4.20;;;16.30;99.90;;;;;;4999505;28;90129;-33
2023/08/03 05:19:51;;;;;;;13.30;4.78;;;16.30;99.90;;;;;;4988958;28;89809;-32
2023/08/03 05:22:16;;;;;;;9.63;4.57;;;16.40;99.90;;;;;;4989340;28;89079;-36
2023/08/03 05:24:42;;;;;;;10.93;4.53;;;16.40;99.90;;;;;;4995880;28;88943;-34
2023/08/03 05:27:09;;;;;;;11.80;4.63;;;16.50;99.90;;;;;;4997253;28;90356;-37
2023/08/03 05:29:35;;;;;;;10.05;4.38;;;16.50;99.90;;;;;;4979435;28;89534;-32
2023/08/03 05:32:01;;;;;;;7.90;5.30;;;16.60;99.90;;;;;;4982061;28;89553;-36
2023/08/03 05:34:26;;;;;;;10.20;5.28;;;16.70;99.90;;;;;;4989164;28;90039;-32
2023/08/03 05:36:52;;;;;;;8.77;5.45;;;16.60;99.90;;;;;;4979461;28;90526;-33
2023/08/03 05:39:18;;;;;;;9.48;5.80;;;16.60;99.90;;;;;;4979338;28;90229;-37
2023/08/03 05:41:44;;;;;;;15.90;5.75;;;16.70;99.90;;;;;;4980514;28;89853;-33
2023/08/03 05:44:13;;;;;;;16.00;5.25;;;16.80;99.90;;;;;;4979127;28;88822;-33
2023/08/03 05:46:39;;;;;;;6.63;5.10;;;16.90;99.90;;;;;;4992162;28;89036;-32
2023/08/03 05:49:04;;;;;;;8.88;4.85;;;17.00;99.90;;;;;;4990323;28;90203;-31
2023/08/03 05:51:30;;;;;;;6.47;4.50;;;17.00;99.90;;;;;;4981015;28;90206;-32
2023/08/03 05:53:56;;;;;;;5.75;5.07;;;17.00;99.90;;;;;;4979903;28;89232;-35
2023/08/03 05:56:23;;;;;;;10.55;5.53;;;17.00;99.90;;;;;;4993032;28;90128;-36
2023/08/03 05:58:49;;;;;;;5.20;4.05;;;17.10;99.90;;;;;;4985864;28;89832;-36
2023/08/03 06:01:19;;;;;;;9.88;5.43;;;17.10;99.90;;;;;;4987611;28;90305;-38
2023/08/03 06:03:45;;;;;;;5.53;4.00;;;17.10;99.90;;;;;;4997675;28;88751;-35
2023/08/03 06:06:15;;;;;;;8.80;5.40;;;17.20;99.90;;;;;;4998314;28;90341;-34
2023/08/03 06:08:53;;;;;;;7.18;4.63;;;17.20;99.90;;;;;;4998738;28;89199;-32
2023/08/03 06:11:20;;;;;;;5.95;4.75;;;17.20;99.90;;;;;;4998795;28;90000;-33
2023/08/03 06:13:47;;;;;;;10.75;5.38;;;17.20;99.90;;;;;;4996798;28;90033;-35
2023/08/03 06:16:14;;;;;;;7.43;5.07;;;17.30;99.90;;;;;;4997706;28;90121;-35
2023/08/03 06:18:49;;;;;;;6.43;5.03;;;17.30;99.90;;;;;;4998315;28;89740;-31
2023/08/03 06:21:16;;;;;;;6.53;4.80;;;17.30;99.90;;;;;;4980090;28;89694;-30
2023/08/03 06:23:47;;;;;;;7.85;4.82;;;17.40;99.90;;;;;;4998153;28;89579;-38
2023/08/03 06:26:16;;;;;;;7.95;5.00;;;17.40;99.90;;;;;;4996272;28;91267;-33
2023/08/03 06:28:43;;;;;;;5.30;4.40;;;17.40;99.90;;;;;;4997515;28;89689;-35
2023/08/03 06:31:30;;;;;;;5.07;4.47;;;17.40;99.90;;;;;;4979765;28;89925;-35
2023/08/03 06:33:57;;;;;;;6.47;4.30;;;17.40;99.90;;;;;;4997768;28;89896;-33
2023/08/03 06:36:27;;;;;;;6.93;4.70;;;17.40;99.90;;;;;;4997863;28;90711;-34
2023/08/03 06:38:53;;;;;;;6.72;4.75;;;17.40;99.90;;;;;;4978256;28;90699;-33
2023/08/03 06:41:20;;;;;;;6.47;3.95;;;17.50;99.90;;;;;;4988023;28;89965;-35
2023/08/03 06:43:46;;;;;;;9.27;3.83;;;17.50;99.90;;;;;;4978857;28;89247;-36
2023/08/03 06:46:12;;;;;;;4.43;3.65;;;17.70;99.90;;;;;;4977948;28;91501;-36
2023/08/03 06:48:38;;;;;;;8.10;3.08;;;17.80;99.90;;;;;;4986028;28;89680;-37
2023/08/03 06:51:04;;;;;;;9.63;3.40;;;17.90;99.90;;;;;;4983191;28;89430;-32
2023/08/03 06:53:30;;;;;;;6.80;3.60;;;18.00;99.90;;;;;;4989668;28;89412;-35
2023/08/03 06:55:56;;;;;;;6.40;3.10;;;17.90;99.90;;;;;;4977892;28;90391;-31
2023/08/03 06:58:21;;;;;;;7.70;3.90;;;17.90;99.90;;;;;;4977483;28;89786;-35
2023/08/03 07:00:47;;;;;;;9.60;3.20;;;17.90;99.90;;;;;;4992764;28;90301;-37
2023/08/03 07:03:13;;;;;;;9.35;3.92;;;18.00;99.90;;;;;;4997002;28;89284;-32
2023/08/03 07:05:39;;;;;;;11.45;4.18;;;18.00;99.90;;;;;;4996759;28;89819;-34
2023/08/03 07:08:05;;;;;;;10.82;3.15;;;18.10;99.90;;;;;;4997472;28;89413;-32
2023/08/03 07:10:32;;;;;;;6.40;3.58;;;18.10;99.90;;;;;;4995869;28;89524;-36
2023/08/03 07:12:57;;;;;;;7.90;3.55;;;18.20;99.90;;;;;;4985809;28;89746;-37
2023/08/03 07:15:23;;;;;;;4.13;3.15;;;18.40;99.90;;;;;;4994639;28;90487;-33
2023/08/03 07:17:49;;;;;;;5.20;2.83;;;18.40;99.90;;;;;;4996226;28;89224;-33
2023/08/03 07:20:14;;;;;;;4.20;2.67;;;18.40;99.90;;;;;;4995697;28;90004;-31
2023/08/03 07:22:40;;;;;;;4.32;2.60;;;18.30;99.90;;;;;;4996436;28;89503;-33
2023/08/03 07:25:06;;;;;;;8.52;3.30;;;18.40;99.90;;;;;;4995244;28;90337;-38
2023/08/03 07:27:32;;;;;;;3.60;2.88;;;18.50;99.90;;;;;;4995829;28;91476;-32
2023/08/03 07:29:58;;;;;;;5.22;2.50;;;18.60;99.90;;;;;;4995398;28;90581;-34
2023/08/03 07:32:24;;;;;;;5.43;2.53;;;18.50;99.90;;;;;;4997381;28;89235;-35
2023/08/03 07:34:50;;;;;;;3.40;2.92;;;18.80;99.90;;;;;;4983703;28;91853;-34
2023/08/03 07:37:15;;;;;;;3.30;2.55;;;19.30;99.90;;;;;;4977060;28;90095;-31
2023/08/03 07:39:41;;;;;;;4.57;2.35;;;19.70;99.90;;;;;;4978029;28;90305;-33
2023/08/03 07:42:07;;;;;;;3.63;2.50;;;19.90;99.90;;;;;;4984032;28;88087;-37
2023/08/03 07:44:32;;;;;;;6.70;2.60;;;19.90;99.90;;;;;;4994551;28;90264;-33
2023/08/03 07:46:58;;;;;;;4.57;2.67;;;19.80;99.90;;;;;;4994340;28;89819;-36
2023/08/03 07:49:24;;;;;;;2.45;2.22;;;19.60;99.90;;;;;;4992070;28;89276;-32
2023/08/03 07:51:49;;;;;;;4.90;2.47;;;19.40;99.90;;;;;;4993631;28;90391;-33
2023/08/03 07:54:15;;;;;;;4.05;2.30;;;19.50;99.90;;;;;;4991396;28;90506;-39
2023/08/03 07:56:41;;;;;;;3.85;2.05;;;19.90;99.90;;;;;;4976347;28;91191;-35
2023/08/03 07:59:10;;;;;;;4.13;2.22;;;20.30;99.90;;;;;;4996181;28;89417;-36
2023/08/03 08:01:36;;;;;;;4.35;2.72;;;20.60;99.90;;;;;;4995809;28;89253;-34
2023/08/03 08:04:02;;;;;;;3.97;1.92;;;21.00;99.90;;;;;;4996604;28;90650;-35
2023/08/03 08:06:28;;;;;;;5.30;1.83;;;21.00;99.90;;;;;;4985541;28;90078;-34
2023/08/03 08:08:54;;;;;;;4.28;2.08;;;21.20;99.90;;;;;;4978189;28;89282;-36
2023/08/03 08:11:20;;;;;;;3.75;1.48;;;21.40;99.90;;;;;;4987661;28;88303;-32
2023/08/03 08:13:45;;;;;;;5.38;2.47;;;21.40;99.90;;;;;;5015335;22;90391;-35
2023/08/03 08:16:14;;;;;;;5.03;1.73;;;21.80;99.90;;;;;;4997086;28;90364;-34
2023/08/03 08:18:40;;;;;;;7.28;2.40;;;21.90;99.90;;;;;;4981888;28;90163;-31
2023/08/03 08:21:07;;;;;;;2.40;1.00;;;22.10;99.90;;;;;;4989098;28;88891;-33
2023/08/03 08:23:33;;;;;;;1.45;1.35;;;22.10;99.90;;;;;;4991264;28;89922;-32
2023/08/03 08:26:00;;;;;;;0.95;0.95;;;22.20;99.90;;;;;;4977986;28;89657;-36
2023/08/03 08:28:27;;;;;;;3.15;1.70;;;22.30;99.90;;;;;;4978721;28;89084;-37
2023/08/03 08:30:52;;;;;;;2.25;1.48;;;22.30;99.90;;;;;;4995992;28;90154;-31
2023/08/03 08:33:19;;;;;;;2.15;1.80;;;22.20;99.90;;;;;;5008430;28;90384;-34
2023/08/03 08:35:48;;;;;;;1.30;1.02;;;22.20;99.90;;;;;;4995736;28;90248;-33
2023/08/03 08:38:15;;;;;;;1.52;1.17;;;22.30;99.90;;;;;;4994643;28;90722;-35
2023/08/03 08:40:42;;;;;;;1.63;1.50;;;22.60;99.90;;;;;;4996313;28;90094;-38
2023/08/03 08:43:08;;;;;;;2.17;1.40;;;22.80;99.90;;;;;;4994659;28;90216;-36
2023/08/03 08:45:35;;;;;;;0.98;0.93;;;22.70;99.90;;;;;;4995135;28;90298;-33
2023/08/03 08:48:01;;;;;;;2.83;1.27;;;22.80;99.90;;;;;;5001567;28;89200;-34
2023/08/03 08:50:27;;;;;;;1.27;1.17;;;23.00;99.90;;;;;;4999788;28;89630;-32
2023/08/03 08:52:53;;;;;;;2.58;1.30;;;22.80;99.90;;;;;;4984042;28;90434;-31
2023/08/03 08:55:20;;;;;;;1.65;1.20;;;22.60;99.90;;;;;;4998963;28;90134;-34
2023/08/03 08:57:46;;;;;;;2.85;1.23;;;22.90;99.90;;;;;;4998868;28;89656;-35
2023/08/03 09:00:12;;;;;;;1.33;0.90;;;23.00;99.90;;;;;;4981115;28;89565;-32
2023/08/03 09:02:38;;;;;;;1.70;1.42;;;22.90;99.90;;;;;;5006375;28;89792;-33
2023/08/03 09:05:13;;;;;;;1.77;1.02;;;23.10;99.90;;;;;;4990643;28;92471;-36
2023/08/03 09:07:39;;;;;;;2.60;1.38;;;22.90;99.90;;;;;;4979096;28;90504;-33
2023/08/03 09:10:05;;;;;;;4.68;1.73;;;23.10;99.90;;;;;;4979672;28;89350;-34
2023/08/03 09:12:31;;;;;;;2.47;1.25;;;23.30;99.90;;;;;;4978515;28;91157;-35
2023/08/03 09:14:57;;;;;;;2.55;1.30;;;22.70;99.90;;;;;;4979566;28;89864;-32
2023/08/03 09:17:24;;;;;;;3.33;1.38;;;22.60;99.90;;;;;;4987204;28;89471;-35
2023/08/03 09:19:53;;;;;;;1.40;1.30;;;22.60;99.90;;;;;;4984184;28;87686;-35
2023/08/03 09:22:21;;;;;;;3.00;1.10;;;22.90;99.90;;;;;;4978708;28;89101;-35
2023/08/03 09:25:05;;;;;;;1.58;1.30;;;22.90;99.90;;;;;;4992235;28;89407;-38
2023/08/03 09:27:32;;;;;;;4.75;1.85;;;22.90;99.90;;;;;;4979245;28;90331;-33
2023/08/03 09:30:03;;;;;;;1.60;1.10;;;22.90;99.90;;;;;;4994636;28;89098;-32
2023/08/03 09:32:34;;;;;;;2.25;1.20;;;23.00;99.90;;;;;;4990215;28;89894;-33
2023/08/03 09:35:01;;;;;;;1.05;1.00;;;22.70;99.90;;;;;;4989542;28;89219;-34
2023/08/03 09:37:35;;;;;;;2.25;1.08;;;23.10;99.90;;;;;;4998915;28;89865;-32
2023/08/03 09:40:03;;;;;;;2.30;1.40;;;22.80;99.90;;;;;;4992200;28;90226;-32
2023/08/03 09:42:31;;;;;;;1.85;1.40;;;23.10;99.90;;;;;;4993739;28;92439;-36
2023/08/03 09:45:02;;;;;;;1.33;1.23;;;23.40;99.90;;;;;;4994176;28;89880;-32
2023/08/03 09:47:30;;;;;;;6.63;1.30;;;23.50;99.90;;;;;;4994327;28;89504;-33
2023/08/03 09:49:56;;;;;;;;;;;23.60;99.90;;;;;;4995374;28;89491;-31
2023/08/03 09:52:26;;;;;;;1.10;0.95;;;23.60;99.90;;;;;;4992579;28;89760;-35
2023/08/03 09:55:13;;;;;;;2.10;1.08;;;23.40;99.90;;;;;;5003207;28;89939;-36
2023/08/03 09:58:05;;;;;;;4.13;1.23;;;23.60;99.90;;;;;;4990476;28;90048;-39
2023/08/03 10:00:32;;;;;;;2.63;1.20;;;23.50;99.90;;;;;;4993245;28;88669;-37
2023/08/03 10:03:07;;;;;;;1.52;1.42;;;23.20;99.90;;;;;;4984526;28;90104;-37
2023/08/03 10:06:04;;;;;;;1.85;0.82;;;22.80;99.90;;;;;;4996009;28;89271;-34
2023/08/03 10:08:45;;;;;;;2.47;1.00;;;22.50;99.90;;;;;;4983024;28;89592;-30
2023/08/03 10:11:12;;;;;;;2.88;1.52;;;22.30;99.90;;;;;;4986530;28;89311;-31
2023/08/03 10:13:44;;;;;;;1.85;1.10;;;22.70;99.90;;;;;;4994787;28;90032;-38
2023/08/03 10:16:10;;;;;;;3.30;1.50;;;22.90;99.90;;;;;;4997198;28;89740;-32
2023/08/03 10:18:37;;;;;;;1.23;1.02;;;23.10;99.90;;;;;;4978384;28;89801;-35
2023/08/03 10:21:03;;;;;;;1.65;1.17;;;23.00;99.90;;;;;;4996700;28;89142;-35
2023/08/03 10:23:29;;;;;;;1.85;0.93;;;22.60;99.90;;;;;;4994262;28;90263;-33
2023/08/03 10:26:00;;;;;;;1.98;1.27;;;22.50;99.90;;;;;;4995282;28;89306;-33
2023/08/03 10:28:40;;;;;;;3.65;1.38;;;23.00;99.90;;;;;;4995005;28;90108;-31
2023/08/03 10:31:12;;;;;;;3.35;1.20;;;23.10;99.90;;;;;;4991085;28;89323;-36
2023/08/03 10:33:49;;;;;;;6.88;1.40;;;23.10;99.90;;;;;;4983945;28;90284;-35
2023/08/03 10:36:35;;;;;;;2.35;1.38;;;22.80;99.90;;;;;;4980400;28;89283;-34
2023/08/03 10:39:09;;;;;;;1.00;1.00;;;23.00;99.90;;;;;;4994134;28;89725;-34
2023/08/03 10:41:46;;;;;;;1.60;1.10;;;23.20;99.90;;;;;;4994179;28;89140;-32
2023/08/03 10:44:12;;;;;;;2.47;1.30;;;23.50;99.90;;;;;;4996826;28;91684;-32
2023/08/03 10:46:42;;;;;;;1.80;1.70;;;23.20;99.90;;;;;;4994773;28;90828;-35
2023/08/03 10:49:20;;;;;;;1.75;1.33;;;22.90;99.90;;;;;;4996459;28;90293;-35
2023/08/03 10:51:47;;;;;;;3.53;1.33;;;22.80;99.90;;;;;;4996375;28;89722;-35
2023/08/03 10:54:13;;;;;;;2.05;1.88;;;22.60;99.90;;;;;;4996351;28;90452;-32
2023/08/03 10:56:39;;;;;;;1.90;1.30;;;22.50;99.90;;;;;;4997756;28;90588;-31
2023/08/03 10:59:05;;;;;;;1.30;1.20;;;22.20;99.90;;;;;;4996359;28;89301;-33
2023/08/03 11:01:31;;;;;;;1.58;1.48;;;22.30;99.90;;;;;;5017063;28;89607;-34
2023/08/03 11:03:58;;;;;;;2.90;1.17;;;22.70;99.90;;;;;;4996631;28;90855;-34
2023/08/03 11:06:27;;;;;;;1.65;1.10;;;22.90;99.90;;;;;;4996920;28;89894;-32
2023/08/03 11:08:55;;;;;;;3.50;1.27;;;23.00;99.90;;;;;;5010749;28;89415;-36
2023/08/03 11:11:23;;;;;;;4.07;1.40;;;22.80;99.90;;;;;;4996809;28;88428;-33
2023/08/03 11:13:49;;;;;;;2.47;1.15;;;22.60;99.90;;;;;;4995721;28;90315;-34
2023/08/03 11:16:15;;;;;;;5.93;2.08;;;22.30;99.90;;;;;;4996214;28;89281;-32
2023/08/03 11:18:45;;;;;;;6.05;1.35;;;22.20;99.90;;;;;;4996713;28;89252;-33
2023/08/03 11:21:11;;;;;;;6.28;1.30;;;22.50;99.90;;;;;;4997892;28;90749;-33
2023/08/03 11:23:37;;;;;;;3.13;1.65;;;22.50;99.90;;;;;;4996228;28;90405;-34
2023/08/03 11:26:06;;;;;;;2.15;1.67;;;22.50;99.90;;;;;;4996130;28;90232;-38
2023/08/03 11:28:42;;;;;;;2.45;1.35;;;22.60;99.90;;;;;;4996393;28;89440;-32
2023/08/03 11:31:18;;;;;;;3.00;2.03;;;22.70;99.90;;;;;;5006807;28;88840;-35
2023/08/03 11:33:51;;;;;;;6.43;1.77;;;22.60;99.90;;;;;;5004607;28;89988;-34
2023/08/03 11:36:22;;;;;;;3.42;1.45;;;22.40;99.90;;;;;;4991423;28;90679;-33
2023/08/03 11:38:50;;;;;;;3.67;1.98;;;22.40;99.90;;;;;;4996101;28;90507;-37
2023/08/03 11:41:22;;;;;;;5.22;1.92;;;22.50;99.90;;;;;;4996797;28;89067;-35
2023/08/03 11:43:49;;;;;;;1.90;1.17;;;22.50;99.90;;;;;;4995981;28;90047;-33
2023/08/03 11:46:19;;;;;;;4.47;1.70;;;22.80;99.90;;;;;;4996376;28;90051;-33
2023/08/03 11:48:45;;;;;;;1.98;1.77;;;22.70;99.90;;;;;;4997699;28;89184;-35
2023/08/03 11:51:11;;;;;;;5.60;2.10;;;22.40;99.90;;;;;;4998324;28;89289;-35
2023/08/03 11:53:38;;;;;;;7.10;1.90;;;22.50;99.90;;;;;;5007002;28;90530;-35
2023/08/03 11:56:04;;;;;;;3.72;2.17;;;22.40;99.90;;;;;;4998004;28;89653;-35
2023/08/03 11:58:30;;;;;;;4.18;2.20;;;22.50;99.90;;;;;;5006383;28;89651;-36
2023/08/03 12:01:02;;;;;;;3.55;2.03;;;22.50;99.90;;;;;;5000797;28;89979;-39
2023/08/03 12:03:37;;;;;;;3.63;1.63;;;22.40;99.90;;;;;;5002713;28;90011;-32
2023/08/03 12:06:05;;;;;;;5.13;2.47;;;22.10;99.90;;;;;;4978090;28;90248;-32
2023/08/03 12:08:52;;;;;;;1.67;1.33;;;22.30;99.90;;;;;;4980218;28;90260;-32
2023/08/03 12:11:18;;;;;;;2.60;1.83;;;22.30;99.90;;;;;;4976912;28;88240;-34
2023/08/03 12:13:44;;;;;;;2.35;1.30;;;22.40;99.90;;;;;;4974690;28;90250;-38
2023/08/03 12:16:10;;;;;;;2.97;1.45;;;22.40;99.90;;;;;;4976560;28;89722;-35
2023/08/03 12:18:37;;;;;;;2.70;1.35;;;22.50;99.90;;;;;;4975780;28;89108;-34
2023/08/03 12:21:03;;;;;;;1.48;1.13;;;22.60;99.90;;;;;;4976545;28;88465;-36
2023/08/03 12:23:28;;;;;;;1.50;1.10;;;22.60;99.90;;;;;;4981510;28;89982;-34
2023/08/03 12:25:54;;;;;;;2.97;1.38;;;22.60;99.90;;;;;;5010543;28;91125;-35
2023/08/03 12:28:21;;;;;;;2.55;1.25;;;22.50;99.90;;;;;;5000668;28;90118;-31
2023/08/03 12:30:46;;;;;;;1.85;1.10;;;22.60;99.90;;;;;;4986288;28;88319;-34
2023/08/03 12:33:12;;;;;;;6.22;1.50;;;22.70;99.90;;;;;;4999021;28;90197;-35
2023/08/03 12:35:38;;;;;;;2.85;1.05;;;22.80;99.90;;;;;;5006518;28;90060;-32
2023/08/03 12:38:04;;;;;;;1.35;1.00;;;22.60;99.90;;;;;;4992815;28;89441;-33
2023/08/03 12:40:29;;;;;;;1.38;1.08;;;22.60;99.90;;;;;;4963919;28;88850;-34
2023/08/03 12:42:55;;;;;;;2.60;1.00;;;22.70;99.90;;;;;;4980544;28;89716;-32
2023/08/03 12:45:24;;;;;;;2.33;1.30;;;22.70;99.90;;;;;;4980364;28;89586;-34